Time;durP1;ratioP1;P1;durP2;ratioP2;P2;SDS_P1;SDS_P2;PMS_P1;PMS_P2;Temp;Humidity;BMP_temperature;BMP_pressure;BME280_temperature;BME280_humidity;BME280_pressure;Samples;Min_cycle;Max_cycle;Signal;HPM_P1;HPM_P2
2021/04/22 00:00:54;;;;;;;;;;;;;;;;;;5069525;28;19925;-68
2021/04/22 00:03:21;;;;;;;;;;;;;;;;;;5068800;28;20069;-69
2021/04/22 00:05:47;;;;;;;;;;;;;;;;;;5069520;28;19931;-67
2021/04/22 00:08:14;;;;;;;;;;;;;;;;;;5068693;28;19978;-67
2021/04/22 00:10:40;;;;;;;;;;;;;;;;;;5068999;28;19932;-67
2021/04/22 00:13:07;;;;;;;;;;;;;;;;;;5070592;28;20299;-67
2021/04/22 00:15:33;;;;;;;;;;;;;;;;;;5073066;28;19978;-66
2021/04/22 00:18:00;;;;;;;;;;;;;;;;;;5069908;28;20345;-67
2021/04/22 00:20:26;;;;;;;;;;;;;;;;;;5070571;28;19971;-66
2021/04/22 00:22:53;;;;;;;;;;;;;;;;;;5073341;28;20355;-67
2021/04/22 00:25:19;;;;;;;;;;;;;;;;;;5071449;28;19984;-66
2021/04/22 00:27:46;;;;;;;;;;;;;;;;;;5072031;28;19939;-68
2021/04/22 00:30:12;;;;;;;;;;;;;;;;;;5073929;28;20439;-67
2021/04/22 00:32:39;;;;;;;;;;;;;;;;;;5072846;28;19982;-67
2021/04/22 00:35:05;;;;;;;;;;;;;;;;;;5072803;28;19924;-67
2021/04/22 00:37:32;;;;;;;;;;;;;;;;;;5070704;28;19928;-68
2021/04/22 00:39:58;;;;;;;;;;;;;;;;;;5070366;28;19928;-67
2021/04/22 00:42:25;;;;;;;;;;;;;;;;;;5063850;28;19924;-66
2021/04/22 00:44:51;;;;;;;;;;;;;;;;;;5072455;28;20380;-66
2021/04/22 00:47:18;;;;;;;;;;;;;;;;;;5065088;28;20372;-66
2021/04/22 00:49:44;;;;;;;;;;;;;;;;;;5068135;28;19932;-66
2021/04/22 00:52:11;;;;;;;;;;;;;;;;;;5065304;28;19999;-66
2021/04/22 00:54:37;;;;;;;;;;;;;;;;;;5067178;28;20373;-66
2021/04/22 00:57:04;;;;;;;;;;;;;;;;;;5068987;28;19940;-67
2021/04/22 00:59:30;;;;;;;;;;;;;;;;;;5070682;28;19924;-66
2021/04/22 01:01:57;;;;;;;;;;;;;;;;;;5066627;28;20345;-67
2021/04/22 01:04:23;;;;;;;;;;;;;;;;;;5064383;28;19925;-65
2021/04/22 01:06:49;;;;;;;;;;;;;;;;;;5068688;28;19946;-65
2021/04/22 01:09:16;;;;;;;;;;;;;;;;;;5069546;28;19987;-66
2021/04/22 01:11:42;;;;;;;;;;;;;;;;;;5070917;28;19936;-66
2021/04/22 01:14:09;;;;;;;;;;;;;;;;;;5066620;28;20449;-67
2021/04/22 01:16:35;;;;;;;;;;;;;;;;;;5064692;28;19929;-67
2021/04/22 01:19:02;;;;;;;;;;;;;;;;;;5068934;28;19924;-67
2021/04/22 01:21:28;;;;;;;;;;;;;;;;;;5070513;28;19931;-66
2021/04/22 01:23:55;;;;;;;;;;;;;;;;;;5065984;28;19978;-66
2021/04/22 01:26:21;;;;;;;;;;;;;;;;;;5071536;28;20020;-67
2021/04/22 01:28:48;;;;;;;;;;;;;;;;;;5066859;28;20103;-66
2021/04/22 01:31:14;;;;;;;;;;;;;;;;;;5064412;28;19924;-66
2021/04/22 01:33:41;;;;;;;;;;;;;;;;;;5068131;28;19989;-66
2021/04/22 01:36:07;;;;;;;;;;;;;;;;;;5068055;28;19925;-66
2021/04/22 01:38:33;;;;;;;;;;;;;;;;;;5071040;28;19924;-67
2021/04/22 01:41:00;;;;;;;;;;;;;;;;;;5071506;28;19924;-67
2021/04/22 01:43:26;;;;;;;;;;;;;;;;;;5069543;28;19931;-66
2021/04/22 01:45:53;;;;;;;;;;;;;;;;;;5070587;28;20069;-67
2021/04/22 01:48:19;;;;;;;;;;;;;;;;;;5062163;28;19924;-67
2021/04/22 01:50:46;;;;;;;;;;;;;;;;;;5071759;28;19967;-69
2021/04/22 01:53:12;;;;;;;;;;;;;;;;;;5071170;28;19970;-66
2021/04/22 01:55:39;;;;;;;;;;;;;;;;;;5063816;28;20031;-66
2021/04/22 01:58:05;;;;;;;;;;;;;;;;;;5068314;28;19925;-66
2021/04/22 02:00:32;;;;;;;;;;;;;;;;;;5066967;28;20019;-67
2021/04/22 02:02:58;;;;;;;;;;;;;;;;;;5069926;28;19970;-67
2021/04/22 02:05:25;;;;;;;;;;;;;;;;;;5067377;28;19983;-67
2021/04/22 02:07:51;;;;;;;;;;;;;;;;;;5069351;28;20353;-66
2021/04/22 02:10:18;;;;;;;;;;;;;;;;;;5071637;28;19980;-66
2021/04/22 02:12:44;;;;;;;;;;;;;;;;;;5065798;28;19974;-66
2021/04/22 02:15:11;;;;;;;;;;;;;;;;;;5066193;28;19929;-66
2021/04/22 02:17:37;;;;;;;;;;;;;;;;;;5064619;28;20011;-67
2021/04/22 02:20:03;;;;;;;;;;;;;;;;;;5075116;28;19924;-67
2021/04/22 02:22:30;;;;;;;;;;;;;;;;;;5067758;28;19928;-66
2021/04/22 02:24:56;;;;;;;;;;;;;;;;;;5073262;28;19925;-66
2021/04/22 02:27:23;;;;;;;;;;;;;;;;;;5072729;28;19931;-67
2021/04/22 02:29:49;;;;;;;;;;;;;;;;;;5075214;28;19941;-68
2021/04/22 02:32:16;;;;;;;;;;;;;;;;;;5066979;28;19931;-67
2021/04/22 02:34:42;;;;;;;;;;;;;;;;;;5076097;28;19929;-66
2021/04/22 02:37:09;;;;;;;;;;;;;;;;;;5072730;28;20780;-67
2021/04/22 02:39:35;;;;;;;;;;;;;;;;;;5075607;28;19924;-68
2021/04/22 02:42:02;;;;;;;;;;;;;;;;;;5070379;28;20132;-66
2021/04/22 02:44:28;;;;;;;;;;;;;;;;;;5075492;28;19971;-67
2021/04/22 02:46:55;;;;;;;;;;;;;;;;;;5074874;28;20281;-65
2021/04/22 02:49:21;;;;;;;;;;;;;;;;;;5069393;28;19939;-68
2021/04/22 02:51:48;;;;;;;;;;;;;;;;;;5071977;28;19924;-68
2021/04/22 02:54:14;;;;;;;;;;;;;;;;;;5071603;28;19968;-66
2021/04/22 02:56:41;;;;;;;;;;;;;;;;;;5074308;28;20045;-66
2021/04/22 02:59:07;;;;;;;;;;;;;;;;;;5066503;28;19933;-67
2021/04/22 03:01:34;;;;;;;;;;;;;;;;;;5072139;28;19924;-67
2021/04/22 03:04:00;;;;;;;;;;;;;;;;;;5073015;28;19928;-66
2021/04/22 03:06:27;;;;;;;;;;;;;;;;;;5069625;28;20300;-66
2021/04/22 03:08:53;;;;;;;;;;;;;;;;;;5072961;28;19932;-66
2021/04/22 03:11:20;;;;;;;;;;;;;;;;;;5072589;28;20396;-65
2021/04/22 03:13:46;;;;;;;;;;;;;;;;;;5070460;28;20216;-66
2021/04/22 03:16:13;;;;;;;;;;;;;;;;;;5073680;28;19929;-66
2021/04/22 03:18:39;;;;;;;;;;;;;;;;;;5064305;28;19925;-66
2021/04/22 03:21:06;;;;;;;;;;;;;;;;;;5066961;28;19925;-66
2021/04/22 03:23:32;;;;;;;;;;;;;;;;;;5068590;28;19932;-66
2021/04/22 03:25:59;;;;;;;;;;;;;;;;;;5072469;28;19925;-65
2021/04/22 03:28:25;;;;;;;;;;;;;;;;;;5059767;28;19924;-66
2021/04/22 03:30:52;;;;;;;;;;;;;;;;;;5061208;28;19931;-67
2021/04/22 03:33:18;;;;;;;;;;;;;;;;;;5061800;28;19952;-66
2021/04/22 03:35:45;;;;;;;;;;;;;;;;;;5066253;28;20028;-65
2021/04/22 03:38:11;;;;;;;;;;;;;;;;;;5070112;28;19936;-67
2021/04/22 03:40:37;;;;;;;;;;;;;;;;;;5074832;28;19931;-66
2021/04/22 03:43:04;;;;;;;;;;;;;;;;;;5061855;28;19977;-66
2021/04/22 03:45:30;;;;;;;;;;;;;;;;;;5074305;28;19928;-66
2021/04/22 03:47:57;;;;;;;;;;;;;;;;;;5074532;28;19924;-67
2021/04/22 03:50:23;;;;;;;;;;;;;;;;;;5074634;28;19925;-66
2021/04/22 03:52:50;;;;;;;;;;;;;;;;;;5074656;28;19976;-67
2021/04/22 03:55:16;;;;;;;;;;;;;;;;;;5074401;28;19925;-67
2021/04/22 03:57:42;;;;;;;;;;;;;;;;;;5073440;28;19924;-66
2021/04/22 04:00:09;;;;;;;;;;;;;;;;;;5071168;28;19932;-66
2021/04/22 04:02:35;;;;;;;;;;;;;;;;;;5068881;28;19924;-66
2021/04/22 04:05:02;;;;;;;;;;;;;;;;;;5062999;28;19933;-66
2021/04/22 04:07:28;;;;;;;;;;;;;;;;;;5065534;28;19925;-67
2021/04/22 04:09:55;;;;;;;;;;;;;;;;;;5065346;28;20292;-66
2021/04/22 04:12:21;;;;;;;;;;;;;;;;;;5064229;28;19960;-66
2021/04/22 04:14:47;;;;;;;;;;;;;;;;;;5074008;28;20035;-65
2021/04/22 04:17:14;;;;;;;;;;;;;;;;;;5075367;28;19929;-66
2021/04/22 04:19:40;;;;;;;;;;;;;;;;;;5093140;22;20021;-66
2021/04/22 04:22:07;;;;;;;;;;;;;;;;;;5072182;28;19925;-66
2021/04/22 04:24:33;;;;;;;;;;;;;;;;;;5070991;28;19931;-66
2021/04/22 04:27:00;;;;;;;;;;;;;;;;;;5071968;28;19931;-65
2021/04/22 04:29:26;;;;;;;;;;;;;;;;;;5056322;28;19978;-66
2021/04/22 04:31:52;;;;;;;;;;;;;;;;;;5039417;28;19939;-66
2021/04/22 04:34:19;;;;;;;;;;;;;;;;;;5048476;28;19931;-67
2021/04/22 04:36:46;;;;;;;;;;;;;;;;;;5063526;28;19998;-66
2021/04/22 04:39:13;;;;;;;;;;;;;;;;;;5052417;28;20410;-65
2021/04/22 04:41:39;;;;;;;;;;;;;;;;;;5051738;28;19964;-66
2021/04/22 04:44:06;;;;;;;;;;;;;;;;;;5052158;28;19929;-65
2021/04/22 04:46:34;;;;;;;;;;;;;;;;;;5051598;28;19931;-67
2021/04/22 04:49:01;;;;;;;;;;;;;;;;;;5040997;28;19924;-67
2021/04/22 04:51:27;;;;;;;;;;;;;;;;;;5047097;28;19925;-67
2021/04/22 04:53:54;;;;;;;;;;;;;;;;;;5044247;28;19978;-65
2021/04/22 04:56:20;;;;;;;;;;;;;;;;;;5044175;28;20015;-67
2021/04/22 04:58:47;;;;;;;;;;;;;;;;;;5049481;28;19924;-66
2021/04/22 05:01:13;;;;;;;;;;;;;;;;;;5043459;28;19924;-66
2021/04/22 05:03:40;;;;;;;;;;;;;;;;;;5042180;28;20028;-68
2021/04/22 05:06:06;;;;;;;;;;;;;;;;;;5045255;28;20007;-68
2021/04/22 05:08:33;;;;;;;;;;;;;;;;;;5041951;28;19978;-68
2021/04/22 05:10:59;;;;;;;;;;;;;;;;;;5036307;28;20439;-68
2021/04/22 05:13:26;;;;;;;;;;;;;;;;;;5045587;28;19925;-68
2021/04/22 05:15:54;;;;;;;;;;;;;;;;;;5041564;28;19941;-68
2021/04/22 05:18:20;;;;;;;;;;;;;;;;;;5045959;28;20400;-67
2021/04/22 05:20:47;;;;;;;;;;;;;;;;;;5043191;28;19925;-68
2021/04/22 05:23:17;;;;;;;;;;;;;;;;;;5039936;28;19932;-68
2021/04/22 05:25:44;;;;;;;;;;;;;;;;;;5036985;28;20293;-68
2021/04/22 05:28:10;;;;;;;;;;;;;;;;;;5042615;28;20359;-68
2021/04/22 05:30:37;;;;;;;;;;;;;;;;;;5042635;28;19928;-67
2021/04/22 05:33:03;;;;;;;;;;;;;;;;;;5044656;28;19929;-67
2021/04/22 05:35:30;;;;;;;;;;;;;;;;;;5045512;28;19978;-67
2021/04/22 05:37:56;;;;;;;;;;;;;;;;;;5040993;28;19935;-68
2021/04/22 05:40:23;;;;;;;;;;;;;;;;;;5040481;28;19935;-67
2021/04/22 05:42:49;;;;;;;;;;;;;;;;;;5040671;28;20314;-67
2021/04/22 05:45:16;;;;;;;;;;;;;;;;;;5043184;28;19933;-67
2021/04/22 05:47:42;;;;;;;;;;;;;;;;;;5043508;28;20374;-67
2021/04/22 05:50:09;;;;;;;;;;;;;;;;;;5040697;28;19933;-66
2021/04/22 05:52:36;;;;;;;;;;;;;;;;;;5046232;28;20315;-65
2021/04/22 05:55:08;;;;;;;;;;;;;;;;;;5046661;28;19964;-67
2021/04/22 05:57:34;;;;;;;;;;;;;;;;;;5040451;28;19925;-67
2021/04/22 06:00:01;;;;;;;;;;;;;;;;;;5046886;28;19931;-68
2021/04/22 06:02:27;;;;;;;;;;;;;;;;;;5048317;28;20356;-67
2021/04/22 06:04:54;;;;;;;;;;;;;;;;;;5048969;28;20411;-67
2021/04/22 06:07:20;;;;;;;;;;;;;;;;;;5043118;28;19925;-69
2021/04/22 06:09:49;;;;;;;;;;;;;;;;;;5045507;28;19933;-66
2021/04/22 06:12:15;;;;;;;;;;;;;;;;;;5046957;28;19929;-66
2021/04/22 06:14:42;;;;;;;;;;;;;;;;;;5049846;28;19925;-66
2021/04/22 06:17:08;;;;;;;;;;;;;;;;;;5046712;28;19924;-66
2021/04/22 06:19:35;;;;;;;;;;;;;;;;;;5047051;28;20043;-67
2021/04/22 06:22:01;;;;;;;;;;;;;;;;;;5047640;28;19939;-67
2021/04/22 06:24:28;;;;;;;;;;;;;;;;;;5048463;28;19924;-67
2021/04/22 06:26:55;;;;;;;;;;;;;;;;;;5042091;28;20373;-67
2021/04/22 06:29:22;;;;;;;;;;;;;;;;;;5050210;28;20367;-68
2021/04/22 06:31:48;;;;;;;;;;;;;;;;;;5045273;28;19925;-67
2021/04/22 06:34:15;;;;;;;;;;;;;;;;;;5045423;28;19955;-68
2021/04/22 06:36:41;;;;;;;;;;;;;;;;;;5039415;28;20380;-68
2021/04/22 06:39:08;;;;;;;;;;;;;;;;;;5048404;28;19928;-68
2021/04/22 06:41:34;;;;;;;;;;;;;;;;;;5043941;28;19931;-67
2021/04/22 06:44:01;;;;;;;;;;;;;;;;;;5046626;28;19931;-67
2021/04/22 06:46:27;;;;;;;;;;;;;;;;;;5045945;28;20372;-67
2021/04/22 06:48:54;;;;;;;;;;;;;;;;;;5044803;28;20026;-68
2021/04/22 06:51:21;;;;;;;;;;;;;;;;;;5048112;28;20239;-67
2021/04/22 06:53:47;;;;;;;;;;;;;;;;;;5047301;28;19924;-67
2021/04/22 06:56:14;;;;;;;;;;;;;;;;;;5046960;28;20019;-68
2021/04/22 06:58:43;;;;;;;;;;;;;;;;;;5047227;28;20707;-68
2021/04/22 07:01:09;;;;;;;;;;;;;;;;;;5040432;28;20043;-68
2021/04/22 07:03:35;;;;;;;;;;;;;;;;;;5042300;28;19925;-68
2021/04/22 07:06:02;;;;;;;;;;;;;;;;;;5047020;28;19924;-68
2021/04/22 07:08:28;;;;;;;;;;;;;;;;;;5045837;28;19928;-68
2021/04/22 07:10:55;;;;;;;;;;;;;;;;;;5047855;28;19924;-68
2021/04/22 07:13:21;;;;;;;;;;;;;;;;;;5045481;28;19932;-68
2021/04/22 07:15:48;;;;;;;;;;;;;;;;;;5047678;28;19960;-68
2021/04/22 07:18:14;;;;;;;;;;;;;;;;;;5051855;28;19939;-67
2021/04/22 07:20:41;;;;;;;;;;;;;;;;;;5051394;28;19931;-67
2021/04/22 07:23:12;;;;;;;;;;;;;;;;;;5051196;28;19968;-67
2021/04/22 07:25:39;;;;;;;;;;;;;;;;;;5048278;28;19925;-67
2021/04/22 07:28:05;;;;;;;;;;;;;;;;;;5047009;28;19924;-67
2021/04/22 07:30:32;;;;;;;;;;;;;;;;;;5050759;28;19983;-67
2021/04/22 07:32:58;;;;;;;;;;;;;;;;;;5052979;28;19931;-67
2021/04/22 07:35:25;;;;;;;;;;;;;;;;;;5050016;28;20380;-66
2021/04/22 07:37:51;;;;;;;;;;;;;;;;;;5050830;28;19925;-67
2021/04/22 07:40:18;;;;;;;;;;;;;;;;;;5047895;28;19972;-67
2021/04/22 07:42:44;;;;;;;;;;;;;;;;;;5052458;28;20086;-67
2021/04/22 07:45:11;;;;;;;;;;;;;;;;;;5053040;28;19925;-67
2021/04/22 07:47:37;;;;;;;;;;;;;;;;;;5051899;28;20373;-67
2021/04/22 07:50:04;;;;;;;;;;;;;;;;;;5061958;28;19997;-67
2021/04/22 07:52:30;;;;;;;;;;;;;;;;;;5046950;28;20012;-67
2021/04/22 07:54:57;;;;;;;;;;;;;;;;;;5052379;28;19932;-67
2021/04/22 07:57:23;;;;;;;;;;;;;;;;;;5052241;28;20300;-67
2021/04/22 07:59:50;;;;;;;;;;;;;;;;;;5052655;28;19964;-67
2021/04/22 08:02:16;;;;;;;;;;;;;;;;;;5051155;28;19964;-66
2021/04/22 08:04:43;;;;;;;;;;;;;;;;;;5052959;28;19925;-66
2021/04/22 08:07:09;;;;;;;;;;;;;;;;;;5047700;28;20289;-66
2021/04/22 08:09:36;;;;;;;;;;;;;;;;;;5052432;28;20019;-66
2021/04/22 08:12:05;;;;;;;;;;;;;;;;;;5052552;28;19978;-66
2021/04/22 08:14:32;;;;;;;;;;;;;;;;;;5051114;28;19972;-67
2021/04/22 08:16:58;;;;;;;;;;;;;;;;;;5048683;28;20012;-67
2021/04/22 08:19:25;;;;;;;;;;;;;;;;;;5051976;28;19931;-67
2021/04/22 08:21:51;;;;;;;;;;;;;;;;;;5052097;28;19971;-67
2021/04/22 08:24:18;;;;;;;;;;;;;;;;;;5047112;28;20018;-67
2021/04/22 08:26:45;;;;;;;;;;;;;;;;;;5048676;28;20021;-67
2021/04/22 08:29:11;;;;;;;;;;;;;;;;;;5050143;28;20277;-67
2021/04/22 08:31:38;;;;;;;;;;;;;;;;;;5050469;28;19924;-67
2021/04/22 08:34:07;;;;;;;;;;;;;;;;;;5049033;28;19924;-67
2021/04/22 08:36:34;;;;;;;;;;;;;;;;;;5049513;28;19995;-67
2021/04/22 08:39:00;;;;;;;;;;;;;;;;;;5050434;28;20011;-67
2021/04/22 08:41:27;;;;;;;;;;;;;;;;;;5051622;28;19931;-67
2021/04/22 08:43:54;;;;;;;;;;;;;;;;;;5051548;28;19924;-67
2021/04/22 08:46:23;;;;;;;;;;;;;;;;;;5050425;28;20028;-67
2021/04/22 08:48:49;;;;;;;;;;;;;;;;;;5049092;28;20019;-67
2021/04/22 08:51:16;;;;;;;;;;;;;;;;;;5051772;28;19931;-66
2021/04/22 08:53:42;;;;;;;;;;;;;;;;;;5046805;28;20472;-68
2021/04/22 08:56:09;;;;;;;;;;;;;;;;;;5049631;28;20027;-66
2021/04/22 08:58:35;;;;;;;;;;;;;;;;;;5048068;28;19925;-67
2021/04/22 09:01:02;;;;;;;;;;;;;;;;;;5051263;28;19979;-67
2021/04/22 09:03:28;;;;;;;;;;;;;;;;;;5051329;28;19933;-67
2021/04/22 09:05:55;;;;;;;;;;;;;;;;;;5046095;28;19924;-67
2021/04/22 09:08:21;;;;;;;;;;;;;;;;;;5046424;28;19952;-66
2021/04/22 09:10:48;;;;;;;;;;;;;;;;;;5048770;28;20462;-67
2021/04/22 09:13:15;;;;;;;;;;;;;;;;;;5050490;28;19924;-67
2021/04/22 09:15:41;;;;;;;;;;;;;;;;;;5049946;28;19925;-67
2021/04/22 09:18:08;;;;;;;;;;;;;;;;;;5053202;28;19968;-67
2021/04/22 09:20:34;;;;;;;;;;;;;;;;;;5051372;28;19925;-68
2021/04/22 09:23:01;;;;;;;;;;;;;;;;;;5050889;28;20392;-67
2021/04/22 09:25:27;;;;;;;;;;;;;;;;;;5047887;28;20288;-67
2021/04/22 09:27:54;;;;;;;;;;;;;;;;;;5051871;28;20023;-67
2021/04/22 09:30:21;;;;;;;;;;;;;;;;;;5054985;28;19925;-67
2021/04/22 09:32:47;;;;;;;;;;;;;;;;;;5052590;28;19939;-67
2021/04/22 09:35:14;;;;;;;;;;;;;;;;;;5051738;28;20377;-67
2021/04/22 09:37:40;;;;;;;;;;;;;;;;;;5044319;28;20401;-67
2021/04/22 09:40:07;;;;;;;;;;;;;;;;;;5050834;28;19972;-67
2021/04/22 09:42:33;;;;;;;;;;;;;;;;;;5050562;28;19931;-67
2021/04/22 09:45:00;;;;;;;;;;;;;;;;;;5044732;28;20452;-66
2021/04/22 09:47:26;;;;;;;;;;;;;;;;;;5049785;28;20419;-66
2021/04/22 09:49:56;;;;;;;;;;;;;;;;;;5050485;28;19970;-67
2021/04/22 09:52:23;;;;;;;;;;;;;;;;;;5053129;28;19928;-68
2021/04/22 09:54:49;;;;;;;;;;;;;;;;;;5051950;28;20058;-68
2021/04/22 09:57:16;;;;;;;;;;;;;;;;;;5053726;28;20018;-68
2021/04/22 09:59:43;;;;;;;;;;;;;;;;;;5052108;28;19986;-68
2021/04/22 10:02:09;;;;;;;;;;;;;;;;;;5051741;28;19935;-66
2021/04/22 10:04:36;;;;;;;;;;;;;;;;;;5049671;28;20435;-66
2021/04/22 10:07:04;;;;;;;;;;;;;;;;;;5052836;28;20397;-66
2021/04/22 10:09:31;;;;;;;;;;;;;;;;;;5048989;28;19935;-66
2021/04/22 10:11:57;;;;;;;;;;;;;;;;;;5049990;28;20008;-67
2021/04/22 10:14:24;;;;;;;;;;;;;;;;;;5050602;28;20327;-67
2021/04/22 10:16:50;;;;;;;;;;;;;;;;;;5048759;28;19924;-67
2021/04/22 10:19:17;;;;;;;;;;;;;;;;;;5085558;22;19924;-69
2021/04/22 10:21:43;;;;;;;;;;;;;;;;;;5085314;28;19964;-69
2021/04/22 10:24:12;;;;;;;;;;;;;;;;;;5085107;28;20315;-70
2021/04/22 10:26:38;;;;;;;;;;;;;;;;;;5080898;28;19939;-68
2021/04/22 10:29:05;;;;;;;;;;;;;;;;;;5077080;28;19939;-70
2021/04/22 10:31:31;;;;;;;;;;;;;;;;;;5080789;28;20421;-69
2021/04/22 10:33:58;;;;;;;;;;;;;;;;;;5075212;28;19924;-70
2021/04/22 10:36:24;;;;;;;;;;;;;;;;;;5078334;28;19933;-70
2021/04/22 10:38:51;;;;;;;;;;;;;;;;;;5079569;28;19925;-69
2021/04/22 10:41:17;;;;;;;;;;;;;;;;;;5081108;28;19931;-69
2021/04/22 10:43:44;;;;;;;;;;;;;;;;;;5081761;28;20023;-70
2021/04/22 10:46:10;;;;;;;;;;;;;;;;;;5076128;28;19931;-69
2021/04/22 10:48:37;;;;;;;;;;;;;;;;;;5076250;28;19932;-69
2021/04/22 10:51:03;;;;;;;;;;;;;;;;;;5079782;28;19924;-68
2021/04/22 10:53:29;;;;;;;;;;;;;;;;;;5078080;28;20388;-68
2021/04/22 10:55:56;;;;;;;;;;;;;;;;;;5081750;28;19931;-69
2021/04/22 10:58:23;;;;;;;;;;;;;;;;;;5076156;28;19967;-69
2021/04/22 11:00:49;;;;;;;;;;;;;;;;;;5076957;28;19928;-70
2021/04/22 11:03:16;;;;;;;;;;;;;;;;;;5084942;28;19928;-69
2021/04/22 11:05:42;;;;;;;;;;;;;;;;;;5079345;28;20374;-69
2021/04/22 11:08:09;;;;;;;;;;;;;;;;;;5078119;28;19924;-70
2021/04/22 11:10:35;;;;;;;;;;;;;;;;;;5076805;28;19924;-70
2021/04/22 11:13:02;;;;;;;;;;;;;;;;;;5079512;28;19928;-70
2021/04/22 11:15:28;;;;;;;;;;;;;;;;;;5076508;28;19932;-69
2021/04/22 11:17:54;;;;;;;;;;;;;;;;;;5072867;28;19924;-69
2021/04/22 11:20:21;;;;;;;;;;;;;;;;;;5073833;28;19931;-69
2021/04/22 11:22:50;;;;;;;;;;;;;;;;;;5075836;28;19946;-70
2021/04/22 11:25:16;;;;;;;;;;;;;;;;;;5079038;28;20017;-68
2021/04/22 11:27:43;;;;;;;;;;;;;;;;;;5078335;28;19968;-69
2021/04/22 11:30:10;;;;;;;;;;;;;;;;;;5077393;28;20490;-69
2021/04/22 11:32:37;;;;;;;;;;;;;;;;;;5077278;28;19983;-70
2021/04/22 11:35:03;;;;;;;;;;;;;;;;;;5080687;28;19931;-69
2021/04/22 11:37:29;;;;;;;;;;;;;;;;;;5076317;28;19934;-70
2021/04/22 11:39:56;;;;;;;;;;;;;;;;;;5079211;28;20003;-70
2021/04/22 11:42:23;;;;;;;;;;;;;;;;;;5076673;28;19928;-69
2021/04/22 11:44:50;;;;;;;;;;;;;;;;;;5079142;28;20436;-69
2021/04/22 11:47:16;;;;;;;;;;;;;;;;;;5075228;28;19924;-69
2021/04/22 11:49:43;;;;;;;;;;;;;;;;;;5078344;28;19924;-69
2021/04/22 11:52:09;;;;;;;;;;;;;;;;;;5078298;28;19974;-69
2021/04/22 11:54:36;;;;;;;;;;;;;;;;;;5076966;28;19940;-70
2021/04/22 11:57:03;;;;;;;;;;;;;;;;;;5075944;28;19932;-69
2021/04/22 11:59:29;;;;;;;;;;;;;;;;;;5078670;28;19999;-69
2021/04/22 12:01:56;;;;;;;;;;;;;;;;;;5079355;28;19924;-69
2021/04/22 12:04:23;;;;;;;;;;;;;;;;;;5079429;28;19925;-69
2021/04/22 12:06:49;;;;;;;;;;;;;;;;;;5075842;28;19936;-69
2021/04/22 12:09:16;;;;;;;;;;;;;;;;;;5076470;28;19952;-69
2021/04/22 12:11:42;;;;;;;;;;;;;;;;;;5078404;28;19975;-68
2021/04/22 12:14:10;;;;;;;;;;;;;;;;;;5074384;28;19935;-68
2021/04/22 12:16:37;;;;;;;;;;;;;;;;;;5078466;28;19928;-69
2021/04/22 12:19:03;;;;;;;;;;;;;;;;;;5077036;28;19971;-69
2021/04/22 12:21:30;;;;;;;;;;;;;;;;;;5077096;28;19924;-68
2021/04/22 12:23:58;;;;;;;;;;;;;;;;;;5079802;28;19928;-69
2021/04/22 12:26:25;;;;;;;;;;;;;;;;;;5081456;28;20402;-69
2021/04/22 12:28:52;;;;;;;;;;;;;;;;;;5075708;28;19971;-69
2021/04/22 12:31:18;;;;;;;;;;;;;;;;;;5077815;28;20346;-69
2021/04/22 12:33:45;;;;;;;;;;;;;;;;;;5080896;28;19928;-69
2021/04/22 12:36:11;;;;;;;;;;;;;;;;;;5076760;28;19934;-68
2021/04/22 12:38:38;;;;;;;;;;;;;;;;;;5077069;28;19929;-70
2021/04/22 12:41:05;;;;;;;;;;;;;;;;;;5080092;28;20049;-68
2021/04/22 12:43:31;;;;;;;;;;;;;;;;;;5081158;28;19929;-69
2021/04/22 12:45:58;;;;;;;;;;;;;;;;;;5082295;28;19924;-70
2021/04/22 12:48:25;;;;;;;;;;;;;;;;;;5080845;28;19925;-69
2021/04/22 12:50:53;;;;;;;;;;;;;;;;;;5081830;28;19925;-71
2021/04/22 12:53:20;;;;;;;;;;;;;;;;;;5080810;28;20004;-68
2021/04/22 12:55:47;;;;;;;;;;;;;;;;;;5077725;28;19939;-70
2021/04/22 12:58:15;;;;;;;;;;;;;;;;;;5080575;28;20436;-71
2021/04/22 13:00:42;;;;;;;;;;;;;;;;;;5083985;28;19946;-68
2021/04/22 13:03:08;;;;;;;;;;;;;;;;;;5079123;28;20007;-69
2021/04/22 13:05:35;;;;;;;;;;;;;;;;;;5079238;28;19925;-70
2021/04/22 13:08:02;;;;;;;;;;;;;;;;;;5079154;28;19928;-69
2021/04/22 13:10:31;;;;;;;;;;;;;;;;;;5076210;28;20397;-69
2021/04/22 13:12:57;;;;;;;;;;;;;;;;;;5076537;28;19923;-69
2021/04/22 13:15:24;;;;;;;;;;;;;;;;;;5076871;28;20003;-69
2021/04/22 13:17:50;;;;;;;;;;;;;;;;;;5075753;28;19928;-69
2021/04/22 13:20:17;;;;;;;;;;;;;;;;;;5079701;28;19925;-69
2021/04/22 13:22:43;;;;;;;;;;;;;;;;;;5078345;28;19932;-70
2021/04/22 13:25:09;;;;;;;;;;;;;;;;;;5078004;28;19928;-69
2021/04/22 13:27:36;;;;;;;;;;;;;;;;;;5078564;28;19924;-71
2021/04/22 13:30:03;;;;;;;;;;;;;;;;;;5083685;28;19932;-69
2021/04/22 13:32:30;;;;;;;;;;;;;;;;;;5081223;28;19931;-69
2021/04/22 13:34:58;;;;;;;;;;;;;;;;;;5080286;28;19928;-69
2021/04/22 13:37:24;;;;;;;;;;;;;;;;;;5079378;28;19970;-70
2021/04/22 13:39:51;;;;;;;;;;;;;;;;;;5079045;28;19939;-70
2021/04/22 13:42:17;;;;;;;;;;;;;;;;;;5083472;28;19928;-69
2021/04/22 13:44:44;;;;;;;;;;;;;;;;;;5078198;28;19928;-69
2021/04/22 13:47:11;;;;;;;;;;;;;;;;;;5074989;28;19962;-69
2021/04/22 13:49:37;;;;;;;;;;;;;;;;;;5077399;28;19925;-68
2021/04/22 13:52:04;;;;;;;;;;;;;;;;;;5080504;28;19928;-72
2021/04/22 13:54:30;;;;;;;;;;;;;;;;;;5078367;28;21324;-69
2021/04/22 13:56:57;;;;;;;;;;;;;;;;;;5077290;28;19931;-70
2021/04/22 13:59:24;;;;;;;;;;;;;;;;;;5077252;28;19928;-70
2021/04/22 14:01:57;;;;;;;;;;;;;;;;;;5080624;28;20371;-69
2021/04/22 14:04:23;;;;;;;;;;;;;;;;;;5078809;28;19936;-71
2021/04/22 14:06:50;;;;;;;;;;;;;;;;;;5073402;28;19924;-70
2021/04/22 14:09:16;;;;;;;;;;;;;;;;;;5080515;28;20008;-69
2021/04/22 14:11:43;;;;;;;;;;;;;;;;;;5073325;28;20270;-70
2021/04/22 14:14:09;;;;;;;;;;;;;;;;;;5074248;28;20318;-70
2021/04/22 14:16:36;;;;;;;;;;;;;;;;;;5078985;28;19930;-70
2021/04/22 14:19:02;;;;;;;;;;;;;;;;;;5079591;28;20019;-69
2021/04/22 14:21:29;;;;;;;;;;;;;;;;;;5075852;28;20281;-70
2021/04/22 14:23:57;;;;;;;;;;;;;;;;;;5080119;28;19984;-69
2021/04/22 14:26:23;;;;;;;;;;;;;;;;;;5083488;28;20314;-68
2021/04/22 14:28:50;;;;;;;;;;;;;;;;;;5085598;28;19967;-68
2021/04/22 14:31:16;;;;;;;;;;;;;;;;;;5083186;28;19992;-68
2021/04/22 14:33:43;;;;;;;;;;;;;;;;;;5082045;28;19925;-70
2021/04/22 14:36:09;;;;;;;;;;;;;;;;;;5082545;28;20022;-68
2021/04/22 14:38:36;;;;;;;;;;;;;;;;;;5079480;28;19932;-70
2021/04/22 14:41:02;;;;;;;;;;;;;;;;;;5082716;28;20035;-68
2021/04/22 14:43:29;;;;;;;;;;;;;;;;;;5082928;28;20380;-68
2021/04/22 14:45:55;;;;;;;;;;;;;;;;;;5081312;28;19971;-68
2021/04/22 14:48:22;;;;;;;;;;;;;;;;;;5079670;28;20015;-69
2021/04/22 14:50:48;;;;;;;;;;;;;;;;;;5081694;28;19924;-68
2021/04/22 14:53:15;;;;;;;;;;;;;;;;;;5080197;28;19932;-70
2021/04/22 14:55:41;;;;;;;;;;;;;;;;;;5082285;28;19931;-69
2021/04/22 14:58:08;;;;;;;;;;;;;;;;;;5077773;28;19925;-68
2021/04/22 15:00:34;;;;;;;;;;;;;;;;;;5081331;28;19931;-69
2021/04/22 15:03:01;;;;;;;;;;;;;;;;;;5079389;28;19925;-69
2021/04/22 15:05:33;;;;;;;;;;;;;;;;;;5080908;28;20019;-68
2021/04/22 15:07:59;;;;;;;;;;;;;;;;;;5079994;28;20291;-68
2021/04/22 15:10:26;;;;;;;;;;;;;;;;;;5079722;28;20023;-69
2021/04/22 15:12:53;;;;;;;;;;;;;;;;;;5083244;28;20039;-69
2021/04/22 15:15:19;;;;;;;;;;;;;;;;;;5082541;28;19924;-70
2021/04/22 15:17:46;;;;;;;;;;;;;;;;;;5082701;28;20305;-68
2021/04/22 15:20:12;;;;;;;;;;;;;;;;;;5084205;28;19995;-69
2021/04/22 15:22:39;;;;;;;;;;;;;;;;;;5085807;28;20018;-68
2021/04/22 15:25:05;;;;;;;;;;;;;;;;;;5083670;28;19947;-69
2021/04/22 15:27:32;;;;;;;;;;;;;;;;;;5082422;28;19924;-68
2021/04/22 15:29:58;;;;;;;;;;;;;;;;;;5082619;28;19987;-68
2021/04/22 15:32:25;;;;;;;;;;;;;;;;;;5082653;28;20380;-68
2021/04/22 15:34:51;;;;;;;;;;;;;;;;;;5081643;28;19931;-68
2021/04/22 15:37:18;;;;;;;;;;;;;;;;;;5082196;28;19928;-67
2021/04/22 15:39:44;;;;;;;;;;;;;;;;;;5078637;28;19924;-68
2021/04/22 15:42:11;;;;;;;;;;;;;;;;;;5081614;28;20028;-68
2021/04/22 15:44:37;;;;;;;;;;;;;;;;;;5081985;28;20411;-70
2021/04/22 15:47:04;;;;;;;;;;;;;;;;;;5079693;28;19935;-67
2021/04/22 15:49:30;;;;;;;;;;;;;;;;;;5084650;28;20060;-70
2021/04/22 15:51:57;;;;;;;;;;;;;;;;;;5080162;28;20015;-69
2021/04/22 15:54:27;;;;;;;;;;;;;;;;;;5081039;28;19929;-68
2021/04/22 15:56:54;;;;;;;;;;;;;;;;;;5083035;28;19975;-68
2021/04/22 15:59:20;;;;;;;;;;;;;;;;;;5081563;28;19998;-68
2021/04/22 16:01:47;;;;;;;;;;;;;;;;;;5082908;28;19924;-69
2021/04/22 16:04:13;;;;;;;;;;;;;;;;;;5077999;28;20023;-68
2021/04/22 16:06:40;;;;;;;;;;;;;;;;;;5082356;28;19931;-68
2021/04/22 16:09:06;;;;;;;;;;;;;;;;;;5078614;28;19928;-68
2021/04/22 16:11:33;;;;;;;;;;;;;;;;;;5079333;28;19928;-69
2021/04/22 16:13:59;;;;;;;;;;;;;;;;;;5081164;28;19924;-68
2021/04/22 16:16:26;;;;;;;;;;;;;;;;;;5080704;28;19924;-69
2021/04/22 16:18:52;;;;;;;;;;;;;;;;;;5053531;22;20401;-68
2021/04/22 16:21:19;;;;;;;;;;;;;;;;;;4954561;28;19927;-67
2021/04/22 16:23:45;;;;;;;;;;;;;;;;;;4953058;28;20375;-67
2021/04/22 16:26:12;;;;;;;;;;;;;;;;;;4954530;28;20304;-67
2021/04/22 16:28:38;;;;;;;;;;;;;;;;;;4951224;28;19969;-67
2021/04/22 16:31:05;;;;;;;;;;;;;;;;;;4940357;29;19942;-68
2021/04/22 16:33:31;;;;;;;;;;;;;;;;;;4938075;29;19985;-67
2021/04/22 16:35:58;;;;;;;;;;;;;;;;;;4937412;29;19934;-67
2021/04/22 16:38:24;;;;;;;;;;;;;;;;;;4939496;28;20375;-67
2021/04/22 16:40:51;;;;;;;;;;;;;;;;;;4935480;29;19966;-67